^^
Station Historical Data
Daily Summary for January 3, 2017 Units:  English    Metric   Both
« Previous Day
Next Day »
Daily Weekly Monthly Yearly Custom
  High: Low: Average:
Temperature: 40.3 °F 35.4 °F 37.8 °F
Dew Point: 39.3 °F 34.1 °F 36.7 °F
Humidity: 96 % 95 % 96 %
Wind Speed: 8.6 mph 0.0 mph 3 mph
Wind Gust: 13.0 mph - -
Wind:- - NE
Pressure: 30.25 in 29.52 in -
Precipitation: 0.47 in    
Historical Graphs
 
 
Tabular Data for January 3, 2017
Time Temperature Dew Point Pressure Wind Wind Speed Wind Gust Humidity Rainfall Rate (Hourly) solar Conditions
00:02 35.8 °F 34.5 °F 30.25 in NNE 1.7 mph 3.5 mph 95 % 0.00 in 0.0 W/m2 RA
00:07 35.7 °F 34.4 °F 30.25 in NNE 3.7 mph 4.6 mph 95 % 0.00 in 0.0 W/m2 RA
00:13 35.7 °F 34.4 °F 30.25 in NE 2.9 mph 4.6 mph 95 % 0.00 in 0.0 W/m2 CLR
00:18 35.7 °F 34.4 °F 30.24 in NE 3.7 mph 4.6 mph 95 % 0.00 in 0.0 W/m2 CLR
00:23 35.7 °F 34.4 °F 30.24 in NNE 4.9 mph 9.2 mph 95 % 0.00 in 0.0 W/m2 CLR
00:28 35.7 °F 34.4 °F 30.24 in NNE 3.5 mph 5.8 mph 95 % 0.00 in 0.0 W/m2 CLR
00:33 35.7 °F 34.4 °F 30.24 in NNE 3.1 mph 5.8 mph 95 % 0.00 in 0.0 W/m2 CLR
00:38 35.7 °F 34.4 °F 30.24 in NNE 1.9 mph 4.6 mph 95 % 0.00 in 0.0 W/m2 CLR
00:43 35.7 °F 34.4 °F 30.24 in NNE 2.4 mph 3.5 mph 95 % 0.00 in 0.0 W/m2 CLR
00:48 35.7 °F 34.4 °F 30.23 in NNE 3.9 mph 5.8 mph 95 % 0.00 in 0.0 W/m2 CLR
00:53 35.7 °F 34.4 °F 30.23 in NNE 3.9 mph 4.6 mph 95 % 0.00 in 0.0 W/m2 CLR
00:58 35.7 °F 34.4 °F 30.23 in NNE 3.0 mph 5.0 mph 95 % 0.00 in 0.0 W/m2 CLR
01:03 35.6 °F 34.3 °F 30.22 in NE 3.2 mph 5.0 mph 95 % 0.00 in 0.0 W/m2 CLR
01:08 35.6 °F 34.3 °F 30.22 in NNE 4.4 mph 5.0 mph 95 % 0.00 in 0.0 W/m2 CLR
01:13 35.6 °F 34.3 °F 30.22 in NE 2.5 mph 4.0 mph 95 % 0.00 in 0.0 W/m2 CLR
01:18 35.6 °F 34.3 °F 30.21 in NE 3.4 mph 5.8 mph 95 % 0.00 in 0.0 W/m2 CLR
01:23 35.6 °F 34.3 °F 30.21 in NNE 3.0 mph 5.0 mph 95 % 0.00 in 0.0 W/m2 CLR
01:28 35.6 °F 34.3 °F 30.21 in NNE 3.2 mph 4.6 mph 95 % 0.00 in 0.0 W/m2 CLR
01:33 35.6 °F 34.3 °F 30.21 in NNE 2.5 mph 4.0 mph 95 % 0.00 in 0.0 W/m2 CLR
01:38 35.6 °F 34.3 °F 30.21 in NE 4.1 mph 6.9 mph 95 % 0.00 in 0.0 W/m2 CLR
01:43 35.6 °F 34.3 °F 30.21 in NE 3.5 mph 4.6 mph 95 % 0.00 in 0.0 W/m2 CLR
01:48 35.6 °F 34.3 °F 30.21 in NNE 3.9 mph 8.0 mph 95 % 0.00 in 0.0 W/m2 CLR
01:53 35.6 °F 34.3 °F 30.20 in NE 5.4 mph 9.2 mph 95 % 0.00 in 0.0 W/m2 CLR
01:58 35.6 °F 34.3 °F 30.20 in NE 5.3 mph 8.1 mph 95 % 0.00 in 0.0 W/m2 CLR
02:03 35.6 °F 34.3 °F 30.20 in NNE 6.4 mph 10.4 mph 95 % 0.00 in 0.0 W/m2 CLR
02:08 35.6 °F 34.3 °F 30.20 in NE 5.5 mph 6.9 mph 95 % 0.00 in 0.0 W/m2 CLR
02:13 35.6 °F 34.3 °F 30.20 in NE 2.3 mph 4.6 mph 95 % 0.00 in 0.0 W/m2 CLR
02:18 35.6 °F 34.3 °F 30.19 in NNE 3.5 mph 7.0 mph 95 % 0.00 in 0.0 W/m2 CLR
02:23 35.6 °F 34.3 °F 30.20 in NNE 5.2 mph 9.0 mph 95 % 0.00 in 0.0 W/m2 CLR
02:28 35.6 °F 34.3 °F 30.19 in NNE 3.9 mph 4.6 mph 95 % 0.00 in 0.0 W/m2 CLR
02:33 35.6 °F 34.3 °F 30.19 in NE 5.1 mph 6.9 mph 95 % 0.00 in 0.0 W/m2 CLR
02:38 35.6 °F 34.3 °F 30.19 in NNE 1.8 mph 5.0 mph 95 % 0.00 in 0.0 W/m2 CLR
02:43 35.7 °F 34.4 °F 30.19 in NE 5.2 mph 9.2 mph 95 % 0.00 in 0.0 W/m2 CLR
02:48 35.7 °F 34.4 °F 30.18 in NE 6.0 mph 9.2 mph 95 % 0.00 in 0.0 W/m2 CLR
02:53 35.6 °F 34.3 °F 30.18 in NE 4.8 mph 6.0 mph 95 % 0.00 in 0.0 W/m2 CLR
02:58 35.6 °F 34.3 °F 30.18 in NE 3.7 mph 5.0 mph 95 % 0.00 in 0.0 W/m2 CLR
03:03 35.6 °F 34.3 °F 30.18 in NE 5.3 mph 8.1 mph 95 % 0.00 in 0.0 W/m2 CLR
03:08 35.6 °F 34.3 °F 30.17 in NE 3.5 mph 5.0 mph 95 % 0.00 in 0.0 W/m2 CLR
03:13 35.6 °F 34.3 °F 30.17 in NE 4.8 mph 9.2 mph 95 % 0.00 in 0.0 W/m2 CLR
03:18 35.6 °F 34.3 °F 30.17 in NNE 5.5 mph 6.0 mph 95 % 0.00 in 0.0 W/m2 CLR
03:23 35.6 °F 34.3 °F 30.17 in NE 5.2 mph 10.4 mph 95 % 0.00 in 0.0 W/m2 CLR
03:28 35.6 °F 34.3 °F 30.17 in NE 4.3 mph 8.1 mph 95 % 0.00 in 0.0 W/m2 CLR
03:34 35.6 °F 34.3 °F 30.16 in NE 4.8 mph 4.8 mph 95 % 0.00 in 0.0 W/m2 CLR
03:39 35.6 °F 34.3 °F 30.16 in NNE 4.1 mph 5.8 mph 95 % 0.00 in 0.0 W/m2 CLR
03:44 35.6 °F 34.3 °F 30.16 in NE 4.7 mph 5.0 mph 95 % 0.00 in 0.0 W/m2 CLR
03:49 35.6 °F 34.3 °F 30.15 in ENE 3.9 mph 3.9 mph 95 % 0.00 in 0.0 W/m2 CLR
03:54 35.6 °F 34.3 °F 30.15 in NE 4.0 mph 8.1 mph 95 % 0.00 in 0.0 W/m2 CLR
03:59 35.6 °F 34.3 °F 30.15 in NE 5.7 mph 10.4 mph 95 % 0.00 in 0.0 W/m2 CLR
04:04 35.6 °F 34.3 °F 30.15 in NE 2.2 mph 4.6 mph 95 % 0.00 in 0.0 W/m2 CLR
04:09 35.6 °F 34.3 °F 30.15 in NNE 3.2 mph 6.0 mph 95 % 0.00 in 0.0 W/m2 CLR
04:14 35.6 °F 34.3 °F 30.15 in NE 4.4 mph 9.2 mph 95 % 0.00 in 0.0 W/m2 CLR
04:19 35.6 °F 34.3 °F 30.14 in NE 5.5 mph 8.1 mph 95 % 0.00 in 0.0 W/m2 CLR
04:24 35.6 °F 34.3 °F 30.14 in NE 3.3 mph 5.8 mph 95 % 0.00 in 0.0 W/m2 CLR
04:29 35.6 °F 34.3 °F 30.14 in NNE 3.8 mph 4.6 mph 95 % 0.00 in 0.0 W/m2 CLR
04:34 35.6 °F 34.3 °F 30.13 in NNE 5.3 mph 6.0 mph 95 % 0.00 in 0.0 W/m2 CLR
04:39 35.6 °F 34.3 °F 30.13 in NE 5.6 mph 7.0 mph 95 % 0.00 in 0.0 W/m2 CLR
04:44 35.6 °F 34.3 °F 30.13 in NNE 4.4 mph 8.1 mph 95 % 0.00 in 0.0 W/m2 CLR
04:49 35.6 °F 34.3 °F 30.13 in NNE 4.5 mph 5.8 mph 95 % 0.00 in 0.0 W/m2 CLR
04:54 35.6 °F 34.3 °F 30.13 in NE 6.2 mph 10.4 mph 95 % 0.00 in 0.0 W/m2 CLR
04:59 35.6 °F 34.3 °F 30.12 in NNE 4.4 mph 9.0 mph 95 % 0.00 in 0.0 W/m2 CLR
05:04 35.6 °F 34.3 °F 30.12 in NE 4.5 mph 5.8 mph 95 % 0.00 in 0.0 W/m2 CLR
05:09 35.6 °F 34.3 °F 30.12 in NNE 2.9 mph 3.5 mph 95 % 0.01 in 0.0 W/m2 RA
05:14 35.6 °F 34.3 °F 30.12 in NE 3.9 mph 4.6 mph 95 % 0.01 in 0.0 W/m2
05:19 35.6 °F 34.3 °F 30.11 in NE 5.2 mph 9.2 mph 95 % 0.01 in 0.0 W/m2
05:24 35.5 °F 34.2 °F 30.11 in NE 2.2 mph 4.0 mph 95 % 0.01 in 0.0 W/m2
05:29 35.5 °F 34.2 °F 30.11 in ENE 3.0 mph 3.5 mph 95 % 0.01 in 0.0 W/m2
05:34 35.4 °F 34.1 °F 30.10 in NE 3.7 mph 5.0 mph 95 % 0.01 in 0.0 W/m2
05:39 35.4 °F 34.1 °F 30.10 in NE 4.2 mph 9.2 mph 95 % 0.01 in 0.0 W/m2
05:44 35.4 °F 34.1 °F 30.09 in NE 5.6 mph 10.0 mph 95 % 0.01 in 0.0 W/m2
05:49 35.4 °F 34.1 °F 30.09 in NE 6.8 mph 9.2 mph 95 % 0.01 in 0.0 W/m2
05:54 35.4 °F 34.1 °F 30.09 in NE 8.6 mph 11.5 mph 95 % 0.01 in 0.0 W/m2
05:59 35.4 °F 34.1 °F 30.08 in NE 6.9 mph 11.5 mph 95 % 0.01 in 0.0 W/m2
06:04 35.4 °F 34.1 °F 30.08 in NNE 5.9 mph 10.4 mph 95 % 0.00 in 0.0 W/m2
06:09 35.4 °F 34.1 °F 30.08 in NE 7.7 mph 11.5 mph 95 % 0.00 in 0.0 W/m2 CLR
06:14 35.4 °F 34.1 °F 30.08 in NE 4.6 mph 10.4 mph 95 % 0.00 in 0.0 W/m2 CLR
06:19 35.4 °F 34.1 °F 30.08 in NE 2.6 mph 4.6 mph 95 % 0.00 in 0.0 W/m2 CLR
06:24 35.5 °F 34.2 °F 30.08 in NE 4.3 mph 4.6 mph 95 % 0.00 in 0.0 W/m2 CLR
06:29 35.5 °F 34.2 °F 30.07 in NNE 4.0 mph 4.6 mph 95 % 0.00 in 0.0 W/m2 CLR
06:34 35.5 °F 34.2 °F 30.07 in NE 4.4 mph 5.8 mph 95 % 0.00 in 0.0 W/m2 CLR
06:39 35.5 °F 34.2 °F 30.06 in NNE 2.7 mph 5.8 mph 95 % 0.00 in 0.0 W/m2 CLR
06:44 35.5 °F 34.2 °F 30.06 in NNE 6.2 mph 6.9 mph 95 % 0.00 in 0.0 W/m2 CLR
06:49 35.5 °F 34.2 °F 30.06 in NE 2.7 mph 4.0 mph 95 % 0.00 in 0.0 W/m2 CLR
06:54 35.5 °F 34.2 °F 30.06 in NNE 5.2 mph 9.2 mph 95 % 0.00 in 0.0 W/m2 CLR
06:59 35.5 °F 34.2 °F 30.05 in NE 4.6 mph 6.0 mph 95 % 0.00 in 0.0 W/m2 CLR
07:04 35.5 °F 34.2 °F 30.05 in NE 4.3 mph 9.2 mph 95 % 0.00 in 0.0 W/m2 OVC
07:09 35.5 °F 34.2 °F 30.05 in NNE 2.8 mph 5.8 mph 95 % 0.00 in 0.0 W/m2 OVC
07:14 35.6 °F 34.3 °F 30.04 in NE 5.0 mph 8.1 mph 95 % 0.00 in 0.0 W/m2 OVC
07:19 35.5 °F 34.2 °F 30.04 in NE 5.6 mph 10.4 mph 95 % 0.00 in 0.0 W/m2 OVC
07:24 35.6 °F 34.3 °F 30.04 in NE 5.4 mph 9.2 mph 95 % 0.00 in 0.0 W/m2 OVC
07:29 35.6 °F 34.3 °F 30.04 in NNE 3.9 mph 5.0 mph 95 % 0.00 in 0.0 W/m2 OVC
07:34 35.6 °F 34.3 °F 30.04 in NE 5.9 mph 10.4 mph 95 % 0.00 in 0.0 W/m2 OVC
07:39 35.6 °F 34.3 °F 30.03 in NE 6.5 mph 11.5 mph 95 % 0.00 in 0.0 W/m2 OVC
07:44 35.6 °F 34.3 °F 30.03 in ENE 4.7 mph 9.2 mph 95 % 0.00 in 0.0 W/m2 OVC
07:50 35.7 °F 34.4 °F 30.03 in NE 8.4 mph 12.0 mph 95 % 0.00 in 0.0 W/m2 OVC
07:55 35.7 °F 34.4 °F 30.03 in NE 4.8 mph 8.0 mph 95 % 0.00 in 0.0 W/m2 OVC
08:00 35.7 °F 34.4 °F 30.02 in ENE 7.1 mph 9.2 mph 95 % 0.00 in 5.0 W/m2 OVC
08:05 35.8 °F 34.5 °F 30.02 in NE 3.7 mph 8.1 mph 95 % 0.00 in 7.0 W/m2 OVC
08:10 35.8 °F 34.5 °F 30.02 in NNE 7.4 mph 9.0 mph 95 % 0.00 in 7.0 W/m2 OVC
08:15 35.9 °F 34.9 °F 30.02 in NE 2.5 mph 8.1 mph 96 % 0.00 in 7.0 W/m2 OVC
08:20 35.9 °F 34.9 °F 30.01 in NNE 6.9 mph 8.0 mph 96 % 0.00 in 9.0 W/m2 OVC
08:25 35.9 °F 34.9 °F 30.01 in NE 7.0 mph 10.0 mph 96 % 0.00 in 12.0 W/m2 OVC
08:30 36.0 °F 35.0 °F 30.01 in NNE 3.7 mph 7.0 mph 96 % 0.00 in 12.0 W/m2 OVC
08:35 36.0 °F 35.0 °F 30.01 in NE 6.0 mph 12.0 mph 96 % 0.00 in 16.0 W/m2 OVC
08:40 36.1 °F 35.1 °F 30.00 in NE 5.0 mph 13.0 mph 96 % 0.01 in 21.0 W/m2 RA
08:45 36.1 °F 35.1 °F 30.00 in NE 3.2 mph 5.8 mph 96 % 0.01 in 21.0 W/m2 RA
08:50 36.2 °F 35.2 °F 30.00 in NE 5.5 mph 9.2 mph 96 % 0.01 in 19.0 W/m2
08:55 36.2 °F 35.2 °F 30.00 in NNE 4.3 mph 5.8 mph 96 % 0.02 in 19.0 W/m2 RA
09:00 36.2 °F 35.2 °F 30.00 in NE 3.8 mph 9.2 mph 96 % 0.02 in 21.0 W/m2 RA
09:09 36.4 °F 35.4 °F 30.00 in ENE 8.0 mph 9.0 mph 96 % 0.02 in 23.0 W/m2 RA
09:14 36.4 °F 35.4 °F 29.99 in ENE 3.2 mph 4.6 mph 96 % 0.03 in 25.0 W/m2 RA
09:19 36.5 °F 35.5 °F 29.99 in NNE 3.9 mph 6.0 mph 96 % 0.03 in 25.0 W/m2 RA
09:24 36.5 °F 35.5 °F 29.99 in NNE 3.6 mph 5.8 mph 96 % 0.03 in 25.0 W/m2 OVC
09:30 36.6 °F 35.6 °F 29.98 in ENE 3.0 mph 4.0 mph 96 % 0.04 in 25.0 W/m2 RA
09:35 36.6 °F 35.6 °F 29.98 in NE 3.3 mph 5.8 mph 96 % 0.05 in 30.0 W/m2 RA
09:40 36.7 °F 35.7 °F 29.98 in NE 5.4 mph 10.4 mph 96 % 0.05 in 32.0 W/m2 RA
09:45 36.7 °F 35.7 °F 29.97 in NE 3.3 mph 4.6 mph 96 % 0.05 in 37.0 W/m2 RA
09:50 36.8 °F 35.8 °F 29.97 in NE 3.1 mph 4.6 mph 96 % 0.05 in 42.0 W/m2 RA
09:55 36.8 °F 35.8 °F 29.97 in NE 4.1 mph 5.8 mph 96 % 0.06 in 40.0 W/m2 RA
10:00 37.0 °F 36.0 °F 29.96 in NE 4.2 mph 6.0 mph 96 % 0.05 in 44.0 W/m2 RA
10:05 37.0 °F 36.0 °F 29.96 in NE 2.7 mph 5.0 mph 96 % 0.06 in 42.0 W/m2 RA
10:10 37.1 °F 36.1 °F 29.95 in NNE 4.2 mph 6.0 mph 96 % 0.06 in 49.0 W/m2 RA
10:15 37.2 °F 36.2 °F 29.95 in NE 3.7 mph 4.6 mph 96 % 0.06 in 42.0 W/m2 RA
10:20 37.2 °F 36.2 °F 29.94 in NE 4.2 mph 6.9 mph 96 % 0.06 in 35.0 W/m2 RA
10:25 37.3 °F 36.3 °F 29.94 in NE 2.2 mph 6.0 mph 96 % 0.06 in 32.0 W/m2 OVC
10:30 37.3 °F 36.3 °F 29.93 in NE 4.4 mph 6.9 mph 96 % 0.05 in 40.0 W/m2 OVC
10:35 37.4 °F 36.4 °F 29.93 in NE 3.0 mph 5.8 mph 96 % 0.04 in 42.0 W/m2 OVC
10:40 37.5 °F 36.5 °F 29.92 in NE 2.7 mph 5.8 mph 96 % 0.05 in 42.0 W/m2 RA
10:45 37.7 °F 36.7 °F 29.92 in NE 4.5 mph 9.2 mph 96 % 0.04 in 42.0 W/m2 RA
10:50 37.7 °F 36.7 °F 29.91 in NE 4.3 mph 5.8 mph 96 % 0.04 in 46.0 W/m2 OVC
10:55 37.8 °F 36.8 °F 29.91 in ENE 5.1 mph 8.1 mph 96 % 0.04 in 42.0 W/m2 RA
11:00 37.8 °F 36.8 °F 29.90 in NE 3.5 mph 5.8 mph 96 % 0.04 in 42.0 W/m2 RA
11:05 37.9 °F 36.9 °F 29.90 in NE 2.4 mph 6.9 mph 96 % 0.03 in 40.0 W/m2 OVC
11:10 37.9 °F 36.9 °F 29.90 in NE 5.0 mph 9.0 mph 96 % 0.00 in 44.0 W/m2 RA
11:15 38.0 °F 37.0 °F 29.89 in NE 4.4 mph 6.9 mph 96 % 0.03 in 44.0 W/m2 OVC
11:20 38.1 °F 37.1 °F 29.88 in NNE 6.0 mph 8.1 mph 96 % 0.07 in 53.0 W/m2 RA
11:25 38.1 °F 37.1 °F 29.87 in NE 2.4 mph 4.0 mph 96 % 0.07 in 49.0 W/m2 RA
11:30 38.2 °F 37.2 °F 29.86 in NE 4.9 mph 6.9 mph 96 % 0.08 in 47.0 W/m2 RA
11:35 38.3 °F 37.3 °F 29.86 in NE 4.3 mph 6.9 mph 96 % 0.08 in 51.0 W/m2 RA
11:40 38.4 °F 37.4 °F 29.85 in NE 6.0 mph 8.1 mph 96 % 0.08 in 46.0 W/m2 RA
11:45 38.4 °F 37.4 °F 29.85 in NE 3.2 mph 6.0 mph 96 % 0.08 in 40.0 W/m2 RA
11:50 38.4 °F 37.4 °F 29.84 in NNE 4.3 mph 5.8 mph 96 % 0.09 in 46.0 W/m2 RA
11:55 38.4 °F 37.4 °F 29.83 in NE 4.9 mph 7.0 mph 96 % 0.08 in 39.0 W/m2 RA
12:00 38.5 °F 37.5 °F 29.83 in NE 5.3 mph 6.0 mph 96 % 0.09 in 42.0 W/m2 RA
12:05 38.6 °F 37.6 °F 29.82 in NE 3.7 mph 5.8 mph 96 % 0.08 in 42.0 W/m2 RA
12:10 38.6 °F 37.6 °F 29.82 in NE 4.1 mph 5.0 mph 96 % 0.09 in 33.0 W/m2 RA
12:15 38.7 °F 37.7 °F 29.81 in NE 4.4 mph 8.1 mph 96 % 0.10 in 46.0 W/m2 RA
12:16 38.7 °F 37.7 °F 29.81 in NNE 4.9 mph 9.2 mph 96 % 0.10 in 51.0 W/m2 RA
12:21 38.8 °F 37.8 °F 29.80 in NE 2.4 mph 4.0 mph 96 % 0.07 in 49.0 W/m2 RA
12:26 38.9 °F 37.9 °F 29.80 in NE 4.8 mph 8.1 mph 96 % 0.07 in 51.0 W/m2 RA
12:31 39.0 °F 38.0 °F 29.79 in NE 4.4 mph 5.8 mph 96 % 0.07 in 49.0 W/m2 RA
12:36 39.1 °F 38.1 °F 29.78 in NE 4.2 mph 5.8 mph 96 % 0.08 in 74.0 W/m2 RA
12:41 39.2 °F 38.2 °F 29.78 in NE 4.3 mph 6.9 mph 96 % 0.07 in 86.0 W/m2 RA
12:46 39.4 °F 38.4 °F 29.77 in NNE 4.8 mph 8.0 mph 96 % 0.08 in 97.0 W/m2 RA
12:51 39.5 °F 38.5 °F 29.77 in NNE 5.9 mph 10.4 mph 96 % 0.07 in 97.0 W/m2 RA
12:56 39.6 °F 38.6 °F 29.77 in NNE 4.7 mph 6.0 mph 96 % 0.08 in 65.0 W/m2 RA
13:01 39.7 °F 38.7 °F 29.76 in NNE 2.4 mph 4.0 mph 96 % 0.07 in 60.0 W/m2 RA
13:06 39.7 °F 38.7 °F 29.76 in NNE 3.6 mph 4.6 mph 96 % 0.06 in 51.0 W/m2 OVC
13:11 39.7 °F 38.7 °F 29.75 in NE 4.5 mph 10.0 mph 96 % 0.06 in 51.0 W/m2 OVC
13:16 39.7 °F 38.7 °F 29.75 in NE 3.1 mph 5.0 mph 96 % 0.05 in 42.0 W/m2 OVC
13:21 39.7 °F 38.7 °F 29.75 in NNE 2.2 mph 3.5 mph 96 % 0.04 in 32.0 W/m2 OVC
13:26 39.7 °F 38.7 °F 29.75 in NNE 2.8 mph 5.0 mph 96 % 0.05 in 53.0 W/m2 RA
13:31 39.8 °F 38.8 °F 29.75 in NNE 2.7 mph 3.5 mph 96 % 0.04 in 47.0 W/m2 RA
13:36 39.8 °F 38.8 °F 29.74 in NNE 3.3 mph 5.0 mph 96 % 0.04 in 39.0 W/m2 RA
13:41 39.7 °F 38.7 °F 29.74 in NE 2.1 mph 3.5 mph 96 % 0.05 in 54.0 W/m2 RA
13:46 39.7 °F 38.7 °F 29.74 in NNE 3.8 mph 4.0 mph 96 % 0.05 in 62.0 W/m2 RA
13:51 39.7 °F 38.7 °F 29.74 in NNE 2.1 mph 3.5 mph 96 % 0.06 in 70.0 W/m2 RA
13:56 39.9 °F 38.9 °F 29.74 in NNE 3.8 mph 5.8 mph 96 % 0.05 in 69.0 W/m2 RA
14:01 39.9 °F 38.9 °F 29.74 in NNE 2.5 mph 3.5 mph 96 % 0.06 in 42.0 W/m2 RA
14:06 39.9 °F 38.9 °F 29.73 in NNE 4.0 mph 4.6 mph 96 % 0.07 in 51.0 W/m2 RA
14:11 39.9 °F 38.9 °F 29.73 in NE 3.1 mph 5.0 mph 96 % 0.07 in 56.0 W/m2 RA
14:16 40.0 °F 39.0 °F 29.73 in NNE 4.5 mph 5.8 mph 96 % 0.07 in 53.0 W/m2 OVC
14:21 40.0 °F 39.0 °F 29.73 in NNE 1.6 mph 3.0 mph 96 % 0.08 in 44.0 W/m2 RA
14:26 40.0 °F 39.0 °F 29.72 in NNE 5.3 mph 8.1 mph 96 % 0.08 in 40.0 W/m2 RA
14:31 40.0 °F 39.0 °F 29.72 in NE 4.3 mph 5.8 mph 96 % 0.08 in 74.0 W/m2 RA
14:36 40.0 °F 39.0 °F 29.72 in NNE 3.3 mph 4.6 mph 96 % 0.08 in 58.0 W/m2 RA
14:42 40.0 °F 39.0 °F 29.72 in NNE 1.0 mph 3.5 mph 96 % 0.08 in 25.0 W/m2 RA
14:47 40.1 °F 39.1 °F 29.72 in Calm   2.3 mph 96 % 0.07 in 28.0 W/m2 RA
14:52 40.1 °F 39.1 °F 29.72 in NNE 1.1 mph 1.1 mph 96 % 0.06 in 51.0 W/m2 OVC
14:57 40.2 °F 39.2 °F 29.71 in NNE 0.8 mph 3.0 mph 96 % 0.06 in 76.0 W/m2 BKN
15:02 40.3 °F 39.3 °F 29.71 in Calm   2.3 mph 96 % 0.05 in 58.0 W/m2 BKN
15:07 40.2 °F 39.2 °F 29.71 in Calm     96 % 0.05 in 28.0 W/m2 RA
15:12 40.3 °F 39.3 °F 29.70 in NNE 2.9 mph 3.5 mph 96 % 0.05 in 18.0 W/m2 RA
15:17 40.2 °F 39.2 °F 29.70 in NNE 0.8 mph 2.3 mph 96 % 0.05 in 11.0 W/m2
15:22 40.1 °F 39.1 °F 29.69 in North 3.3 mph 5.8 mph 96 % 0.04 in 18.0 W/m2 OVC
15:27 40.1 °F 39.1 °F 29.69 in NNE 3.3 mph 5.8 mph 96 % 0.03 in 14.0 W/m2 OVC
15:32 40.1 °F 39.1 °F 29.69 in NNE 3.4 mph 5.8 mph 96 % 0.03 in 16.0 W/m2 OVC
15:37 40.1 °F 39.1 °F 29.69 in NNE 0.3 mph 2.3 mph 96 % 0.03 in 14.0 W/m2 RA
15:42 40.1 °F 39.1 °F 29.68 in NNE 0.7 mph 5.8 mph 96 % 0.02 in 21.0 W/m2 RA
15:47 40.0 °F 39.0 °F 29.68 in NNE 3.3 mph 4.0 mph 96 % 0.02 in 25.0 W/m2
15:52 40.0 °F 39.0 °F 29.67 in NNE 4.9 mph 6.9 mph 96 % 0.02 in 37.0 W/m2 BKN
15:57 40.1 °F 39.1 °F 29.67 in NNE 2.6 mph 4.6 mph 96 % 0.02 in 32.0 W/m2 SCT
16:02 40.2 °F 39.2 °F 29.67 in NNE 1.4 mph 3.5 mph 96 % 0.03 in 19.0 W/m2 RA
16:07 40.2 °F 39.2 °F 29.67 in NNE 0.9 mph 3.5 mph 96 % 0.02 in 25.0 W/m2 RA
16:12 40.1 °F 39.1 °F 29.66 in NNE 3.3 mph 4.0 mph 96 % 0.02 in 12.0 W/m2
16:17 40.2 °F 39.2 °F 29.67 in NNE 1.5 mph 3.5 mph 96 % 0.02 in 9.0 W/m2 OVC
16:22 40.1 °F 39.1 °F 29.66 in NNE 2.2 mph 3.5 mph 96 % 0.02 in 9.0 W/m2 BKN
16:27 40.1 °F 39.1 °F 29.66 in NNE 2.6 mph 3.5 mph 96 % 0.02 in 9.0 W/m2 BKN
16:32 40.1 °F 39.1 °F 29.66 in NNE 1.0 mph 3.5 mph 96 % 0.02 in 5.0 W/m2 BKN
16:37 40.2 °F 39.2 °F 29.66 in NNE 2.0 mph 3.5 mph 96 % 0.01 in 0.0 W/m2 OVC
16:42 40.1 °F 39.1 °F 29.65 in NNE 2.5 mph 3.5 mph 96 % 0.01 in 0.0 W/m2 OVC
16:47 40.1 °F 39.1 °F 29.65 in Calm     96 % 0.01 in 0.0 W/m2 OVC
16:52 40.0 °F 39.0 °F 29.65 in Calm     96 % 0.02 in 0.0 W/m2 RA
16:57 40.0 °F 39.0 °F 29.65 in NNE 2.3 mph 3.5 mph 96 % 0.02 in 0.0 W/m2 RA
17:02 40.1 °F 39.1 °F 29.65 in North 2.6 mph 3.5 mph 96 % 0.01 in 0.0 W/m2
17:07 40.1 °F 39.1 °F 29.65 in NNE 3.8 mph 5.8 mph 96 % 0.01 in 0.0 W/m2 CLR
17:12 40.0 °F 39.0 °F 29.64 in NNE 3.7 mph 4.6 mph 96 % 0.01 in 0.0 W/m2 CLR
17:17 40.1 °F 39.1 °F 29.64 in Calm     96 % 0.01 in 0.0 W/m2 CLR
17:22 40.1 °F 39.1 °F 29.63 in North 0.3 mph 1.2 mph 96 % 0.01 in 0.0 W/m2 CLR
17:27 40.0 °F 39.0 °F 29.63 in NNE 2.6 mph 3.5 mph 96 % 0.01 in 0.0 W/m2 CLR
17:32 39.9 °F 38.9 °F 29.62 in NNE 6.1 mph 9.2 mph 96 % 0.01 in 0.0 W/m2 CLR
17:37 39.9 °F 38.9 °F 29.62 in NNE 5.5 mph 10.4 mph 96 % 0.01 in 0.0 W/m2 CLR
17:42 39.8 °F 38.8 °F 29.63 in North 0.1 mph 2.3 mph 96 % 0.01 in 0.0 W/m2 CLR
17:47 39.8 °F 38.8 °F 29.63 in Calm     96 % 0.01 in 0.0 W/m2 CLR
17:52 39.8 °F 38.8 °F 29.62 in NNE 5.3 mph 8.1 mph 96 % 0.00 in 0.0 W/m2 CLR
17:57 39.8 °F 38.8 °F 29.61 in NNE 3.9 mph 5.8 mph 96 % 0.00 in 0.0 W/m2 CLR
18:02 39.7 °F 38.7 °F 29.62 in NNE 3.8 mph 4.6 mph 96 % 0.00 in 0.0 W/m2 CLR
18:07 39.7 °F 38.7 °F 29.62 in NNE 4.3 mph 5.8 mph 96 % 0.00 in 0.0 W/m2 CLR
18:12 39.7 °F 38.7 °F 29.62 in NNE 3.3 mph 4.6 mph 96 % 0.00 in 0.0 W/m2 CLR
18:17 39.7 °F 38.7 °F 29.61 in NE 3.8 mph 4.6 mph 96 % 0.00 in 0.0 W/m2 CLR
18:22 39.7 °F 38.7 °F 29.61 in NNE 3.1 mph 4.0 mph 96 % 0.00 in 0.0 W/m2 CLR
18:27 39.7 °F 38.7 °F 29.61 in NNE 1.4 mph 3.5 mph 96 % 0.00 in 0.0 W/m2 CLR
18:32 39.7 °F 38.7 °F 29.62 in Calm     96 % 0.00 in 0.0 W/m2 CLR
18:37 39.6 °F 38.6 °F 29.61 in NNE 2.1 mph 2.3 mph 96 % 0.00 in 0.0 W/m2 CLR
18:42 39.6 °F 38.6 °F 29.61 in NNE 3.7 mph 4.6 mph 96 % 0.00 in 0.0 W/m2 CLR
18:47 39.6 °F 38.6 °F 29.61 in NNE 2.6 mph 3.5 mph 96 % 0.00 in 0.0 W/m2 CLR
18:52 39.6 °F 38.6 °F 29.61 in NNE 0.2 mph 3.5 mph 96 % 0.00 in 0.0 W/m2 CLR
18:57 39.6 °F 38.6 °F 29.60 in NNE 2.3 mph 3.5 mph 96 % 0.00 in 0.0 W/m2 CLR
19:02 39.5 °F 38.5 °F 29.60 in Calm     96 % 0.00 in 0.0 W/m2 CLR
19:07 39.5 °F 38.5 °F 29.59 in NNE 1.5 mph 3.5 mph 96 % 0.00 in 0.0 W/m2 CLR
19:12 39.5 °F 38.5 °F 29.59 in NE 0.6 mph 3.5 mph 96 % 0.00 in 0.0 W/m2 CLR
19:18 39.5 °F 38.5 °F 29.59 in NE 1.2 mph 3.5 mph 96 % 0.00 in 0.0 W/m2 CLR
19:23 39.5 °F 38.5 °F 29.59 in NNE 2.0 mph 3.5 mph 96 % 0.00 in 0.0 W/m2 CLR
19:28 39.4 °F 38.4 °F 29.58 in Calm   3.5 mph 96 % 0.00 in 0.0 W/m2 CLR
19:33 39.4 °F 38.4 °F 29.58 in Calm     96 % 0.00 in 0.0 W/m2 CLR
19:38 39.4 °F 38.4 °F 29.58 in Calm     96 % 0.00 in 0.0 W/m2 CLR
19:43 39.3 °F 38.3 °F 29.58 in NNE 2.6 mph 3.5 mph 96 % 0.00 in 0.0 W/m2 CLR
19:48 39.3 °F 38.3 °F 29.58 in Calm   2.3 mph 96 % 0.00 in 0.0 W/m2 CLR
19:53 39.3 °F 38.3 °F 29.58 in Calm     96 % 0.00 in 0.0 W/m2 CLR
19:58 39.3 °F 38.3 °F 29.58 in Calm   1.2 mph 96 % 0.00 in 0.0 W/m2 CLR
20:03 39.3 °F 38.3 °F 29.57 in Calm     96 % 0.00 in 0.0 W/m2 CLR
20:08 39.3 °F 38.3 °F 29.57 in Calm     96 % 0.00 in 0.0 W/m2 CLR
20:13 39.2 °F 38.2 °F 29.57 in NNE 0.1 mph   96 % 0.00 in 0.0 W/m2 CLR
20:18 39.2 °F 38.2 °F 29.57 in NNE 1.0 mph 3.5 mph 96 % 0.00 in 0.0 W/m2 CLR
20:23 39.2 °F 38.2 °F 29.57 in Calm     96 % 0.00 in 0.0 W/m2 CLR
20:28 39.2 °F 38.2 °F 29.57 in Calm     96 % 0.00 in 0.0 W/m2 CLR
20:33 39.1 °F 38.1 °F 29.57 in NNE 0.1 mph 3.5 mph 96 % 0.00 in 0.0 W/m2 CLR
20:38 39.1 °F 38.1 °F 29.56 in Calm     96 % 0.00 in 0.0 W/m2 CLR
20:43 39.1 °F 38.1 °F 29.56 in Calm     96 % 0.00 in 0.0 W/m2 CLR
20:48 39.1 °F 38.1 °F 29.56 in Calm     96 % 0.00 in 0.0 W/m2 CLR
20:53 39.0 °F 38.0 °F 29.56 in Calm     96 % 0.00 in 0.0 W/m2 CLR
20:58 39.0 °F 38.0 °F 29.57 in Calm     96 % 0.01 in 0.0 W/m2 RA
21:03 39.0 °F 38.0 °F 29.56 in Calm     96 % 0.01 in 0.0 W/m2 RA
21:08 39.0 °F 38.0 °F 29.56 in Calm     96 % 0.01 in 0.0 W/m2
21:13 39.0 °F 38.0 °F 29.56 in Calm     96 % 0.01 in 0.0 W/m2
21:18 39.0 °F 38.0 °F 29.56 in NNE 0.3 mph 2.3 mph 96 % 0.01 in 0.0 W/m2
21:23 39.0 °F 38.0 °F 29.56 in Calm     96 % 0.01 in 0.0 W/m2
21:28 39.0 °F 38.0 °F 29.56 in Calm     96 % 0.01 in 0.0 W/m2
21:33 39.0 °F 38.0 °F 29.56 in NNE 1.3 mph 2.3 mph 96 % 0.01 in 0.0 W/m2
21:38 38.9 °F 37.9 °F 29.55 in NE 3.0 mph 4.0 mph 96 % 0.01 in 0.0 W/m2
21:43 38.9 °F 37.9 °F 29.55 in NE 0.7 mph 2.3 mph 96 % 0.02 in 0.0 W/m2 RA
21:48 38.9 °F 37.9 °F 29.55 in Calm     96 % 0.02 in 0.0 W/m2 RA
21:53 38.9 °F 37.9 °F 29.55 in Calm     96 % 0.02 in 0.0 W/m2
21:58 38.9 °F 37.9 °F 29.55 in Calm     96 % 0.01 in 0.0 W/m2
22:03 38.9 °F 37.9 °F 29.56 in Calm     96 % 0.01 in 0.0 W/m2
22:08 38.9 °F 37.9 °F 29.56 in Calm     96 % 0.01 in 0.0 W/m2
22:13 38.9 °F 37.9 °F 29.56 in Calm     96 % 0.01 in 0.0 W/m2
22:18 38.8 °F 37.8 °F 29.56 in Calm     96 % 0.01 in 0.0 W/m2
22:23 38.9 °F 37.9 °F 29.56 in Calm     96 % 0.01 in 0.0 W/m2
22:28 38.8 °F 37.8 °F 29.56 in Calm     96 % 0.01 in 0.0 W/m2
22:33 38.8 °F 37.8 °F 29.55 in Calm     96 % 0.01 in 0.0 W/m2
22:38 38.8 °F 37.8 °F 29.55 in Calm     96 % 0.01 in 0.0 W/m2
22:43 38.8 °F 37.8 °F 29.55 in Calm     96 % 0.00 in 0.0 W/m2
22:48 38.8 °F 37.8 °F 29.55 in Calm     96 % 0.00 in 0.0 W/m2 CLR
22:53 38.8 °F 37.8 °F 29.55 in Calm     96 % 0.00 in 0.0 W/m2 CLR
22:58 38.8 °F 37.8 °F 29.55 in Calm     96 % 0.00 in 0.0 W/m2 CLR
23:03 38.8 °F 37.8 °F 29.55 in Calm     96 % 0.00 in 0.0 W/m2 CLR
23:08 38.8 °F 37.8 °F 29.55 in Calm     96 % 0.00 in 0.0 W/m2 CLR
23:13 38.8 °F 37.8 °F 29.55 in Calm     96 % 0.00 in 0.0 W/m2 CLR
23:18 38.8 °F 37.8 °F 29.55 in Calm     96 % 0.00 in 0.0 W/m2 CLR
23:23 38.8 °F 37.8 °F 29.54 in Calm     96 % 0.00 in 0.0 W/m2 CLR
23:28 38.8 °F 37.8 °F 29.54 in Calm     96 % 0.00 in 0.0 W/m2 CLR
23:34 38.8 °F 37.8 °F 29.54 in Calm     96 % 0.00 in 0.0 W/m2 CLR
23:39 38.8 °F 37.8 °F 29.54 in Calm     96 % 0.00 in 0.0 W/m2 CLR
23:44 38.8 °F 37.8 °F 29.53 in Calm     96 % 0.00 in 0.0 W/m2 CLR
23:49 38.8 °F 37.8 °F 29.52 in Calm     96 % 0.00 in 0.0 W/m2 CLR
23:54 38.8 °F 37.8 °F 29.53 in Calm     96 % 0.00 in 0.0 W/m2 CLR
23:59 38.8 °F 37.8 °F 29.52 in Calm     96 % 0.00 in 0.0 W/m2 CLR
Air Products Campus Weather
Compliments of Weather Underground - 3.5 mb